Time;durP1;ratioP1;P1;durP2;ratioP2;P2;SDS_P1;SDS_P2;PMS_P1;PMS_P2;Temp;Humidity;BMP_temperature;BMP_pressure;BME280_temperature;BME280_humidity;BME280_pressure;Samples;Min_cycle;Max_cycle;Signal;HPM_P1;HPM_P2
2024/04/20 00:02:24;;;;;;;7.00;2.40;;;5.90;99.90;;;6.64;100.00;97780.78;5492206;26;20477;-75
2024/04/20 00:04:57;;;;;;;3.83;1.60;;;5.90;99.90;;;6.60;100.00;97780.31;5496059;26;20480;-76
2024/04/20 00:07:27;;;;;;;10.20;1.83;;;5.90;99.90;;;6.63;100.00;97797.38;5497717;26;21014;-75
2024/04/20 00:09:58;;;;;;;3.77;1.60;;;6.00;99.90;;;6.66;100.00;97786.63;5493764;25;20550;-76
2024/04/20 00:12:29;;;;;;;3.63;1.50;;;6.00;99.90;;;6.59;100.00;97784.69;5494965;26;20530;-75
2024/04/20 00:15:00;;;;;;;8.73;2.23;;;5.80;99.90;;;6.58;100.00;97785.69;5496771;26;20548;-75
2024/04/20 00:17:31;;;;;;;7.53;2.23;;;5.90;99.90;;;6.63;100.00;97792.16;5492800;26;20926;-75
2024/04/20 00:20:04;;;;;;;5.10;1.50;;;5.80;99.90;;;6.67;100.00;97802.03;5495091;26;20481;-75
2024/04/20 00:22:34;;;;;;;2.80;1.50;;;5.90;99.90;;;6.68;100.00;97795.06;5495459;25;20486;-75
2024/04/20 00:25:04;;;;;;;10.03;1.80;;;6.00;99.90;;;6.59;100.00;97789.88;5495198;26;20479;-75
2024/04/20 00:27:34;;;;;;;6.57;1.87;;;6.00;99.90;;;6.58;100.00;97793.47;5500683;25;20456;-75
2024/04/20 00:30:05;;;;;;;5.93;1.53;;;6.00;99.90;;;6.50;100.00;97796.09;5494442;26;20522;-76
2024/04/20 00:32:35;;;;;;;5.20;1.67;;;5.90;99.90;;;6.49;100.00;97799.66;5492657;26;20483;-75
2024/04/20 00:35:09;;;;;;;2.27;1.50;;;5.80;99.90;;;6.54;100.00;97805.16;5497068;26;20612;-76
2024/04/20 00:37:39;;;;;;;2.60;1.33;;;5.80;99.90;;;6.45;100.00;97813.16;5493519;26;20528;-76
2024/04/20 00:40:08;;;;;;;2.67;1.40;;;5.60;99.90;;;6.38;100.00;97813.03;5491399;25;20591;-76
2024/04/20 00:42:38;;;;;;;6.63;1.40;;;5.50;99.90;;;6.35;100.00;97810.72;5495481;26;20543;-76
2024/04/20 00:45:09;;;;;;;7.53;1.30;;;5.50;99.90;;;6.36;100.00;97804.56;5499254;25;20525;-76
2024/04/20 00:47:41;;;;;;;2.40;1.30;;;5.50;99.90;;;6.37;100.00;97805.38;5493551;25;20529;-75
2024/04/20 00:50:14;;;;;;;3.50;1.30;;;5.50;99.90;;;6.40;100.00;97800.66;5490625;26;20479;-76
2024/04/20 00:52:46;;;;;;;2.87;1.60;;;5.60;99.90;;;6.41;100.00;97807.50;5498056;25;20490;-76
2024/04/20 00:55:16;;;;;;;10.13;1.47;;;5.60;99.90;;;6.44;100.00;97808.94;5491991;26;20488;-76
2024/04/20 00:57:46;;;;;;;5.03;1.50;;;5.60;99.90;;;6.45;100.00;97808.78;5495572;26;20483;-75
2024/04/20 01:00:18;;;;;;;3.53;1.40;;;5.70;99.90;;;6.47;100.00;97806.81;5493465;26;20474;-76
2024/04/20 01:02:50;;;;;;;4.40;1.10;;;5.60;99.90;;;6.45;100.00;97811.38;5492418;25;20585;-76
2024/04/20 01:05:23;;;;;;;4.50;1.37;;;5.60;99.90;;;6.46;100.00;97810.38;5492627;26;20516;-76
2024/04/20 01:07:53;;;;;;;2.33;1.30;;;5.60;99.90;;;6.45;100.00;97807.97;5492867;25;20485;-76
2024/04/20 01:10:24;;;;;;;5.50;1.13;;;5.60;99.90;;;6.42;100.00;97809.09;5492143;25;20481;-76
2024/04/20 01:13:03;;;;;;;1.37;1.00;;;5.60;99.90;;;6.38;100.00;97807.81;5490546;26;20600;-76
2024/04/20 01:15:33;;;;;;;2.93;1.20;;;5.60;99.90;;;6.36;100.00;97814.97;5490676;26;20541;-76
2024/04/20 01:18:04;;;;;;;2.87;1.50;;;5.50;99.90;;;6.37;100.00;97816.59;5486010;26;20537;-76
2024/04/20 01:20:37;;;;;;;1.30;1.00;;;5.50;99.90;;;6.39;100.00;97814.63;5487745;25;20843;-76
2024/04/20 01:23:08;;;;;;;9.13;2.07;;;5.60;99.90;;;6.38;100.00;97812.22;5489749;25;20484;-76
2024/04/20 01:25:49;;;;;;;2.80;1.13;;;5.50;99.90;;;6.32;100.00;97810.25;5491300;26;20864;-76
2024/04/20 01:28:20;;;;;;;3.07;1.10;;;5.50;99.90;;;6.31;100.00;97817.25;5485794;25;20553;-76
2024/04/20 01:30:50;;;;;;;2.03;1.27;;;5.50;99.90;;;6.34;100.00;97822.13;5484874;26;20486;-76
2024/04/20 01:33:21;;;;;;;1.00;0.90;;;5.40;99.90;;;6.37;100.00;97824.38;5487503;26;20533;-76
2024/04/20 01:35:51;;;;;;;2.27;1.10;;;5.50;99.90;;;6.41;100.00;97838.66;5488170;25;20813;-76
2024/04/20 01:38:21;;;;;;;1.70;1.07;;;5.60;99.90;;;6.42;100.00;97829.09;5487507;26;21096;-76
2024/04/20 01:40:54;;;;;;;1.43;1.10;;;5.60;99.90;;;6.42;100.00;97834.28;5483454;26;20954;-76
2024/04/20 01:43:24;;;;;;;3.03;1.27;;;5.60;99.90;;;6.43;100.00;97836.69;5489647;26;20563;-76
2024/04/20 01:45:54;;;;;;;1.30;1.03;;;5.60;99.90;;;6.44;100.00;97835.72;5491010;26;20484;-75
2024/04/20 01:48:25;;;;;;;3.90;2.00;;;5.70;99.90;;;6.49;100.00;97841.22;5489313;25;20531;-79
2024/04/20 01:50:55;;;;;;;6.60;1.90;;;5.70;99.90;;;6.38;100.00;97848.56;5489033;26;20513;-76
2024/04/20 01:53:26;;;;;;;1.23;1.10;;;5.80;99.90;;;6.38;100.00;97854.56;5489767;26;20480;-76
2024/04/20 01:55:58;;;;;;;5.00;1.43;;;5.70;99.90;;;6.39;100.00;97857.94;5490964;26;20482;-76
2024/04/20 01:58:29;;;;;;;1.80;1.20;;;5.70;99.90;;;6.42;100.00;97858.44;5488181;26;20497;-76
2024/04/20 02:00:59;;;;;;;3.93;1.10;;;5.70;99.90;;;6.38;100.00;97864.97;5487798;26;20597;-75
2024/04/20 02:03:32;;;;;;;1.07;0.97;;;5.70;99.90;;;6.40;100.00;97872.56;5491741;26;20557;-75
2024/04/20 02:06:02;;;;;;;3.90;2.07;;;5.60;99.90;;;6.40;100.00;97868.19;5492527;26;20529;-75
2024/04/20 02:08:33;;;;;;;4.27;2.47;;;5.70;99.90;;;6.41;100.00;97864.63;5486292;25;20587;-80
2024/04/20 02:11:06;;;;;;;4.10;1.63;;;5.60;99.90;;;6.45;100.00;97871.13;5486424;26;20573;-76
2024/04/20 02:13:36;;;;;;;1.60;1.00;;;5.70;99.90;;;6.43;100.00;97875.66;5490994;26;20566;-76
2024/04/20 02:16:07;;;;;;;5.03;1.27;;;5.80;99.90;;;6.46;100.00;97870.13;5491812;26;20610;-76
2024/04/20 02:18:37;;;;;;;3.83;1.10;;;5.80;99.90;;;6.43;100.00;97873.03;5491036;26;20573;-76
2024/04/20 02:21:09;;;;;;;1.30;0.97;;;5.70;99.90;;;6.45;100.00;97872.91;5498058;26;20491;-76
2024/04/20 02:23:42;;;;;;;3.13;1.50;;;5.70;99.90;;;6.44;100.00;97879.88;5497876;26;20517;-76
2024/04/20 02:26:15;;;;;;;4.60;1.10;;;5.70;99.90;;;6.46;100.00;97884.88;5495344;26;20535;-75
2024/04/20 02:28:45;;;;;;;2.60;1.10;;;5.70;99.90;;;6.38;100.00;97882.31;5497778;26;20477;-74
2024/04/20 02:31:15;;;;;;;4.00;0.93;;;5.60;99.90;;;6.40;100.00;97877.75;5502142;26;20536;-75
2024/04/20 02:33:46;;;;;;;9.50;1.43;;;5.60;99.90;;;6.45;100.00;97878.91;5496497;26;21161;-75
2024/04/20 02:36:16;;;;;;;1.40;1.10;;;5.60;99.90;;;6.47;100.00;97886.50;5494528;26;21411;-75
2024/04/20 02:38:46;;;;;;;3.83;0.90;;;5.70;99.90;;;6.46;100.00;97880.50;5495898;26;20476;-75
2024/04/20 02:41:19;;;;;;;2.30;1.50;;;5.70;99.90;;;6.41;100.00;97881.97;5493364;26;20515;-75
2024/04/20 02:43:49;;;;;;;1.00;0.90;;;5.70;99.90;;;6.39;100.00;97886.50;5494447;26;20484;-77
2024/04/20 02:46:19;;;;;;;5.60;3.43;;;5.60;99.90;;;6.37;100.00;97891.88;5493364;26;20546;-76
2024/04/20 02:48:50;;;;;;;2.40;1.30;;;5.70;99.90;;;6.40;100.00;97896.75;5495615;26;20473;-77
2024/04/20 02:51:20;;;;;;;3.53;1.40;;;5.70;99.90;;;6.37;100.00;97897.09;5497686;25;20523;-76
2024/04/20 02:53:50;;;;;;;1.83;1.00;;;5.60;99.90;;;6.41;100.00;97903.56;5498569;25;20497;-76
2024/04/20 02:56:23;;;;;;;1.33;1.00;;;5.60;99.90;;;6.44;100.00;97903.25;5495726;26;20595;-76
2024/04/20 02:58:53;;;;;;;2.77;1.10;;;5.60;99.90;;;6.45;100.00;97911.84;5492479;25;20579;-76
2024/04/20 03:01:23;;;;;;;3.60;1.33;;;5.70;99.90;;;6.35;100.00;97908.63;5493563;25;20478;-75
2024/04/20 03:03:54;;;;;;;7.80;1.50;;;5.50;99.90;;;6.36;100.00;97913.63;5495976;26;20484;-75
2024/04/20 03:06:24;;;;;;;1.00;0.90;;;5.60;99.90;;;6.28;100.00;97916.22;5495580;26;20839;-75
2024/04/20 03:08:54;;;;;;;2.50;1.00;;;5.50;99.90;;;6.27;100.00;97919.81;5491537;26;20539;-75
2024/04/20 03:11:27;;;;;;;3.77;1.43;;;5.50;99.90;;;6.28;100.00;97928.41;5498394;26;20491;-78
2024/04/20 03:13:58;;;;;;;2.90;1.70;;;5.50;99.90;;;6.16;100.00;97934.88;5491336;26;20590;-76
2024/04/20 03:16:28;;;;;;;3.00;1.50;;;5.50;99.90;;;6.19;100.00;97937.97;5490982;26;20471;-76
2024/04/20 03:18:58;;;;;;;3.23;1.40;;;5.50;99.90;;;6.24;100.00;97946.09;5494375;25;20583;-75
2024/04/20 03:21:28;;;;;;;2.17;1.00;;;5.60;99.90;;;6.28;100.00;97941.41;5494411;26;20932;-75
2024/04/20 03:23:58;;;;;;;3.23;1.07;;;5.50;99.90;;;6.36;100.00;97949.97;5491928;26;20456;-76
2024/04/20 03:26:31;;;;;;;13.10;1.37;;;5.70;99.90;;;6.30;100.00;97949.81;5492923;26;20593;-76
2024/04/20 03:29:01;;;;;;;4.10;1.10;;;5.60;99.90;;;6.23;100.00;97952.25;5488653;25;21139;-76
2024/04/20 03:31:31;;;;;;;7.80;4.07;;;5.50;99.90;;;6.26;100.00;97957.13;5491062;26;20464;-75
2024/04/20 03:34:02;;;;;;;1.50;1.40;;;5.50;99.90;;;6.25;100.00;97970.28;5495132;26;20476;-75
2024/04/20 03:36:33;;;;;;;1.63;1.20;;;5.60;99.90;;;6.25;100.00;97965.88;5498291;26;21272;-76
2024/04/20 03:39:13;;;;;;;1.73;1.30;;;5.60;99.90;;;6.30;100.00;97968.81;5493588;26;20463;-76
2024/04/20 03:41:46;;;;;;;10.43;1.23;;;5.50;99.90;;;6.32;100.00;97972.06;5495674;26;20482;-76
2024/04/20 03:44:17;;;;;;;3.03;2.00;;;5.60;99.90;;;6.31;100.00;97977.41;5494457;26;20464;-75
2024/04/20 03:46:47;;;;;;;1.87;1.27;;;5.50;99.90;;;6.25;100.00;97978.84;5493994;26;20558;-75
2024/04/20 03:49:17;;;;;;;2.13;1.37;;;5.50;99.90;;;6.23;100.00;97980.81;5494760;26;20603;-75
2024/04/20 03:51:48;;;;;;;3.17;1.73;;;5.60;99.90;;;6.27;100.00;97981.31;5495781;26;21016;-75
2024/04/20 03:54:18;;;;;;;4.83;1.60;;;5.60;99.90;;;6.30;100.00;97980.97;5493409;26;20462;-76
2024/04/20 03:56:50;;;;;;;1.93;1.10;;;5.60;99.90;;;6.26;100.00;97990.88;5493371;26;20805;-76
2024/04/20 03:59:21;;;;;;;5.13;1.43;;;5.70;99.90;;;6.30;100.00;97987.00;5497996;26;20487;-76
2024/04/20 04:01:51;;;;;;;1.17;1.07;;;5.60;99.90;;;6.30;100.00;97994.78;5494683;25;20479;-75
2024/04/20 04:04:21;;;;;;;2.23;1.23;;;5.60;99.90;;;6.36;100.00;97990.72;5491017;26;20480;-76
2024/04/20 04:06:51;;;;;;;3.80;1.40;;;5.60;99.90;;;6.30;100.00;97996.56;5495286;26;20478;-75
2024/04/20 04:09:21;;;;;;;2.80;1.30;;;5.50;99.90;;;6.31;100.00;97999.00;5494159;26;21028;-75
2024/04/20 04:11:54;;;;;;;4.63;1.30;;;5.60;99.90;;;6.23;100.00;98001.59;5494560;25;20472;-76
2024/04/20 04:14:24;;;;;;;1.20;1.00;;;5.50;99.90;;;6.26;100.00;98003.03;5494666;26;20560;-75
2024/04/20 04:16:56;;;;;;;1.73;1.10;;;5.50;99.90;;;6.29;100.00;98016.50;5492544;25;20489;-75
2024/04/20 04:19:26;;;;;;;14.33;6.30;;;5.60;99.90;;;6.27;100.00;98013.28;5489695;26;20580;-78
2024/04/20 04:21:58;;;;;;;1.37;1.17;;;5.50;99.90;;;6.22;100.00;98015.53;5492742;25;20476;-76
2024/04/20 04:24:28;;;;;;;2.13;1.20;;;5.50;99.90;;;6.23;100.00;98019.75;5496785;26;20468;-76
2024/04/20 04:27:15;;;;;;;3.77;1.30;;;5.50;99.90;;;6.26;100.00;98022.03;5488704;26;20530;-76
2024/04/20 04:29:45;;;;;;;6.67;3.13;;;5.50;99.90;;;6.20;100.00;98016.66;5493367;26;20489;-78
2024/04/20 04:32:15;;;;;;;4.03;1.43;;;5.50;99.90;;;6.18;100.00;98029.81;5490944;25;20561;-77
2024/04/20 04:34:46;;;;;;;4.30;1.53;;;5.50;99.90;;;6.19;100.00;98038.41;5496073;26;21127;-76
2024/04/20 04:37:16;;;;;;;2.00;1.30;;;5.50;99.90;;;6.12;100.00;98040.00;5484672;26;20460;-76
2024/04/20 04:39:46;;;;;;;2.17;1.20;;;5.40;99.90;;;6.02;100.00;98040.16;5499576;25;20486;-75
2024/04/20 04:42:19;;;;;;;2.77;1.33;;;5.20;99.90;;;5.94;100.00;98040.94;5496430;26;21015;-75
2024/04/20 04:44:50;;;;;;;2.60;1.50;;;5.10;99.90;;;5.93;100.00;98048.91;5498554;26;21260;-76
2024/04/20 04:47:20;;;;;;;4.23;1.90;;;5.00;99.90;;;5.90;100.00;98046.63;5498665;26;20484;-75
2024/04/20 04:49:50;;;;;;;7.90;2.00;;;5.00;99.90;;;5.93;100.00;98061.88;5500267;25;21021;-76
2024/04/20 04:52:22;;;;;;;1.43;1.23;;;5.10;99.90;;;5.96;100.00;98056.38;5499939;26;20476;-76
2024/04/20 04:54:52;;;;;;;3.73;1.67;;;5.10;99.90;;;5.92;100.00;98060.25;5498423;25;20479;-75
2024/04/20 04:57:25;;;;;;;1.30;1.20;;;5.10;99.90;;;5.92;100.00;98061.06;5499995;26;20521;-75
2024/04/20 04:59:55;;;;;;;1.93;1.50;;;5.10;99.90;;;5.93;100.00;98061.88;5496214;26;20936;-75
2024/04/20 05:02:25;;;;;;;3.60;1.30;;;5.10;99.90;;;5.92;100.00;98065.44;5495735;26;20527;-76
2024/04/20 05:04:55;;;;;;;1.30;1.10;;;5.10;99.90;;;5.96;100.00;98066.75;5498450;26;20489;-76
2024/04/20 05:07:26;;;;;;;5.43;1.83;;;5.20;99.90;;;5.89;100.00;98068.34;5496808;26;20493;-76
2024/04/20 05:09:56;;;;;;;5.33;1.60;;;5.10;99.90;;;5.90;100.00;98067.38;5495388;25;20480;-75
2024/04/20 05:12:29;;;;;;;1.83;1.40;;;5.10;99.90;;;5.91;100.00;98077.59;5491997;26;20530;-75
2024/04/20 05:15:00;;;;;;;2.90;1.10;;;5.10;99.90;;;5.96;100.00;98077.94;5498388;26;20644;-76
2024/04/20 05:17:30;;;;;;;4.40;1.50;;;5.10;99.90;;;5.93;100.00;98075.66;5495609;26;20946;-76
2024/04/20 05:20:00;;;;;;;5.57;1.47;;;5.10;99.90;;;5.97;100.00;98078.75;5494474;26;20875;-78
2024/04/20 05:22:30;;;;;;;2.10;1.27;;;5.10;99.90;;;5.91;100.00;98077.59;5496887;26;20613;-76
2024/04/20 05:25:01;;;;;;;3.83;1.47;;;5.10;99.90;;;5.88;100.00;98079.69;5496466;26;20483;-76
2024/04/20 05:27:33;;;;;;;3.37;1.47;;;5.00;99.90;;;5.85;100.00;98085.16;5494799;25;20467;-75
2024/04/20 05:30:05;;;;;;;1.60;1.37;;;5.00;99.90;;;5.87;100.00;98091.84;5498484;25;21060;-75
2024/04/20 05:32:35;;;;;;;2.73;1.60;;;4.90;99.90;;;5.88;100.00;98088.28;5495121;25;20474;-75
2024/04/20 05:35:07;;;;;;;2.97;1.13;;;5.00;99.90;;;5.94;100.00;98094.63;5497536;25;20476;-76
2024/04/20 05:37:37;;;;;;;3.83;1.23;;;5.10;99.90;;;6.05;100.00;98099.53;5493722;26;20576;-76
2024/04/20 05:40:11;;;;;;;4.53;1.47;;;5.20;99.90;;;6.10;100.00;98104.25;5496076;25;20902;-76
2024/04/20 05:42:44;;;;;;;1.60;1.37;;;5.30;99.90;;;6.07;100.00;98097.63;5497255;25;20554;-75
2024/04/20 05:45:18;;;;;;;7.10;1.80;;;5.20;99.90;;;6.08;100.00;98107.00;5497983;26;20557;-76
2024/04/20 05:47:48;;;;;;;7.20;1.47;;;5.20;99.90;;;6.15;100.00;98110.59;5494609;25;20469;-76
2024/04/20 05:50:20;;;;;;;4.13;1.50;;;5.30;99.90;;;6.17;100.00;98111.28;5497034;26;21041;-75
2024/04/20 05:52:50;;;;;;;1.33;1.23;;;5.40;99.90;;;6.15;100.00;98113.19;5494222;26;20483;-76
2024/04/20 05:55:21;;;;;;;6.20;1.53;;;5.40;99.90;;;6.16;100.00;98124.41;5500471;25;20493;-75
2024/04/20 05:57:56;;;;;;;4.40;1.63;;;5.30;99.90;;;6.23;100.00;98128.00;5497468;25;20541;-75
2024/04/20 06:00:26;;;;;;;3.20;1.33;;;5.40;99.90;;;6.23;100.00;98123.63;5496264;26;20526;-75
2024/04/20 06:02:57;;;;;;;3.37;2.00;;;5.50;99.90;;;6.30;100.00;98131.59;5496672;25;20489;-76
2024/04/20 06:05:27;;;;;;;1.73;1.40;;;5.60;99.90;;;6.23;100.00;98134.00;5494952;26;20519;-75
2024/04/20 06:07:58;;;;;;;6.20;1.70;;;5.50;99.90;;;6.25;100.00;98142.44;5498245;26;20550;-76
2024/04/20 06:10:28;;;;;;;1.30;1.20;;;5.50;99.90;;;6.30;100.00;98144.56;5496815;26;21101;-75
2024/04/20 06:13:01;;;;;;;4.60;2.17;;;5.50;99.90;;;6.38;100.00;98142.00;5497367;25;20616;-76
2024/04/20 06:15:33;;;;;;;4.27;1.67;;;5.60;99.90;;;6.35;100.00;98145.72;5495243;26;20521;-76
2024/04/20 06:18:04;;;;;;;2.07;1.57;;;5.50;99.90;;;6.31;100.00;98149.63;5496193;26;20481;-76
2024/04/20 06:20:37;;;;;;;1.40;1.30;;;5.50;99.90;;;6.30;100.00;98150.56;5497394;26;21014;-75
2024/04/20 06:23:07;;;;;;;4.30;1.90;;;5.50;99.90;;;6.39;100.00;98154.81;5496492;26;20480;-75
2024/04/20 06:25:38;;;;;;;1.70;1.50;;;5.70;99.90;;;6.33;100.00;98160.63;5499405;26;20472;-76
2024/04/20 06:28:10;;;;;;;4.73;1.23;;;5.60;99.90;;;6.41;100.00;98165.88;5499620;25;20809;-76
2024/04/20 06:30:41;;;;;;;2.03;1.20;;;5.60;99.90;;;6.43;100.00;98165.69;5498028;26;21152;-76
2024/04/20 06:33:11;;;;;;;4.47;1.70;;;5.70;99.90;;;6.48;100.00;98172.06;5499617;26;20466;-76
2024/04/20 06:35:41;;;;;;;1.90;1.30;;;5.70;99.90;;;6.52;100.00;98183.78;5498421;26;20473;-76
2024/04/20 06:38:12;;;;;;;3.40;1.30;;;5.80;99.90;;;6.55;100.00;98191.25;5500883;26;20543;-76
2024/04/20 06:40:42;;;;;;;3.23;1.20;;;5.80;99.90;;;6.54;100.00;98186.19;5496814;26;21216;-75
2024/04/20 06:43:15;;;;;;;13.67;1.37;;;5.80;99.90;;;6.54;100.00;98191.38;5496733;26;21540;-76
2024/04/20 06:45:45;;;;;;;1.57;1.17;;;5.80;99.90;;;6.52;100.00;98199.34;5499361;25;20561;-76
2024/04/20 06:48:16;;;;;;;10.40;1.83;;;5.80;99.90;;;6.57;100.00;98198.88;5497038;26;20465;-76
2024/04/20 06:50:48;;;;;;;5.43;1.50;;;5.90;99.90;;;6.52;100.00;98195.94;5496589;26;20472;-76
2024/04/20 06:53:18;;;;;;;4.20;1.80;;;5.80;99.90;;;6.56;100.00;98203.25;5497528;26;20489;-76
2024/04/20 06:55:57;;;;;;;2.80;1.37;;;5.90;99.90;;;6.61;100.00;98205.38;5499365;26;20477;-76
2024/04/20 06:58:30;;;;;;;3.53;1.40;;;5.90;99.90;;;6.61;100.00;98209.75;5497736;25;20487;-75
2024/04/20 07:01:00;;;;;;;1.20;1.10;;;5.90;99.90;;;6.61;100.00;98207.16;5494558;26;20534;-76
2024/04/20 07:03:31;;;;;;;2.70;1.50;;;5.90;99.90;;;6.65;100.00;98213.66;5496358;26;20492;-77
2024/04/20 07:06:01;;;;;;;1.40;1.30;;;6.00;99.90;;;6.62;100.00;98224.38;5494881;26;20519;-76
2024/04/20 07:08:32;;;;;;;1.97;1.20;;;6.00;99.90;;;6.59;100.00;98226.31;5494697;26;20593;-76
2024/04/20 07:11:04;;;;;;;8.33;1.50;;;5.90;99.90;;;6.64;100.00;98223.25;5497369;26;20477;-76
2024/04/20 07:13:42;;;;;;;2.63;1.07;;;5.90;99.90;;;6.68;100.00;98228.94;5500657;26;20472;-76
2024/04/20 07:16:13;;;;;;;6.87;1.70;;;5.90;99.90;;;6.72;100.00;98231.06;5495220;26;20907;-76
2024/04/20 07:18:44;;;;;;;7.87;2.00;;;5.90;99.90;;;6.76;100.00;98236.75;5502948;26;20858;-76
2024/04/20 07:21:14;;;;;;;5.53;1.40;;;5.90;99.90;;;6.75;100.00;98235.94;5497816;26;20586;-76
2024/04/20 07:23:45;;;;;;;1.97;1.47;;;5.90;99.90;;;6.81;100.00;98240.50;5498502;26;20482;-76
2024/04/20 07:26:16;;;;;;;6.43;1.43;;;6.00;99.90;;;6.87;100.00;98239.06;5501594;26;20466;-76
2024/04/20 07:28:48;;;;;;;6.67;1.40;;;6.10;99.90;;;6.89;100.00;98240.53;5498536;25;20563;-76
2024/04/20 07:31:19;;;;;;;6.67;1.60;;;6.20;99.90;;;6.97;100.00;98243.16;5498049;25;21233;-77
2024/04/20 07:33:49;;;;;;;2.37;1.50;;;6.20;99.90;;;7.07;100.00;98245.63;5498038;26;20474;-75
2024/04/20 07:36:19;;;;;;;4.43;1.50;;;6.40;99.90;;;7.16;100.00;98249.84;5497316;26;20516;-76
2024/04/20 07:38:50;;;;;;;3.47;1.17;;;6.40;99.90;;;7.19;100.00;98252.13;5497572;26;20479;-76
2024/04/20 07:41:20;;;;;;;1.30;1.00;;;6.40;99.90;;;7.28;100.00;98243.38;5495354;26;21092;-76
2024/04/20 07:43:53;;;;;;;1.47;1.10;;;6.60;99.90;;;7.33;100.00;98261.88;5498269;26;20477;-76
2024/04/20 07:46:23;;;;;;;3.70;1.33;;;6.70;99.90;;;7.42;100.00;98252.31;5498282;26;20591;-76
2024/04/20 07:48:53;;;;;;;2.40;1.40;;;6.70;99.90;;;7.49;100.00;98258.50;5497794;26;20471;-76
2024/04/20 07:51:23;;;;;;;5.73;1.40;;;6.80;99.90;;;7.51;100.00;98259.97;5495114;25;20477;-75
2024/04/20 07:53:54;;;;;;;2.93;1.60;;;6.90;99.90;;;7.40;100.00;98278.47;5497289;25;20475;-76
2024/04/20 07:56:24;;;;;;;2.10;1.33;;;6.80;99.90;;;7.28;100.00;98269.38;5494919;26;20478;-76
2024/04/20 07:58:57;;;;;;;1.53;1.40;;;6.80;99.90;;;7.28;100.00;98279.78;5494864;26;20825;-76
2024/04/20 08:01:27;;;;;;;8.03;1.43;;;6.80;99.90;;;7.28;100.00;98279.78;5498025;26;20838;-76
2024/04/20 08:03:58;;;;;;;2.90;1.10;;;6.90;99.90;;;7.26;100.00;98279.09;5495469;26;21011;-76
2024/04/20 08:06:29;;;;;;;1.43;1.30;;;6.80;99.90;;;7.33;100.00;98285.28;5495843;26;20461;-76
2024/04/20 08:08:59;;;;;;;1.43;1.30;;;6.80;99.90;;;7.37;100.00;98291.81;5497428;26;20794;-76
2024/04/20 08:11:30;;;;;;;3.50;1.50;;;6.90;99.90;;;7.33;100.00;98295.69;5495472;25;20565;-76
2024/04/20 08:14:02;;;;;;;3.00;1.33;;;6.80;99.90;;;7.37;100.00;98294.41;5502068;26;20525;-76
2024/04/20 08:16:33;;;;;;;3.83;1.30;;;6.80;99.90;;;7.36;100.00;98300.56;5497761;26;21407;-76
2024/04/20 08:19:04;;;;;;;3.30;1.40;;;6.80;99.90;;;7.39;100.00;98302.06;5496740;26;20494;-76
2024/04/20 08:21:35;;;;;;;14.20;1.23;;;6.90;99.90;;;7.47;100.00;98305.47;5496243;26;20539;-76
2024/04/20 08:24:06;;;;;;;3.03;1.33;;;6.90;99.90;;;7.44;100.00;98300.59;5497595;26;20516;-76
2024/04/20 08:26:36;;;;;;;3.87;1.63;;;6.90;99.90;;;7.45;100.00;98304.84;5498365;26;20531;-76
2024/04/20 08:29:09;;;;;;;1.67;1.20;;;6.90;99.90;;;7.46;100.00;98309.03;5498711;25;20462;-76
2024/04/20 08:31:40;;;;;;;4.30;1.40;;;6.90;99.90;;;7.45;100.00;98315.25;5499077;26;20494;-76
2024/04/20 08:34:08;;;;;;;1.97;1.37;;;6.80;99.90;;;7.50;100.00;98312.13;5498578;26;20480;-76
2024/04/20 08:36:38;;;;;;;1.87;1.40;;;6.90;99.90;;;7.44;100.00;98316.22;5496613;26;20917;-76
2024/04/20 08:39:08;;;;;;;7.87;1.20;;;6.90;99.90;;;7.41;100.00;98321.75;5494313;26;20531;-76
2024/04/20 08:41:48;;;;;;;1.70;1.30;;;6.90;99.90;;;7.35;100.00;98321.56;5498716;25;20842;-76
2024/04/20 08:44:22;;;;;;;4.37;1.60;;;6.90;99.90;;;7.26;100.00;98331.13;5495377;26;20637;-76
2024/04/20 08:46:54;;;;;;;2.17;1.27;;;6.70;99.90;;;7.29;100.00;98338.59;5496401;26;20490;-76
2024/04/20 08:49:29;;;;;;;3.63;1.30;;;6.80;99.90;;;7.29;100.00;98340.41;5496639;26;20471;-76
2024/04/20 08:52:00;;;;;;;3.20;1.20;;;6.70;99.90;;;7.38;100.00;98342.88;5493348;26;20498;-76
2024/04/20 08:54:31;;;;;;;1.60;1.20;;;6.70;99.90;;;7.46;100.00;98349.88;5495794;26;20491;-76
2024/04/20 08:57:03;;;;;;;2.20;1.10;;;6.80;99.90;;;7.49;100.00;98344.34;5496403;25;20536;-76
2024/04/20 08:59:36;;;;;;;3.83;2.43;;;6.80;99.90;;;7.50;100.00;98354.59;5492664;26;20562;-76
2024/04/20 09:02:10;;;;;;;3.10;2.07;;;6.80;99.90;;;7.54;100.00;98355.91;5494608;26;20487;-76
2024/04/20 09:04:42;;;;;;;1.57;1.17;;;6.90;99.90;;;7.59;100.00;98358.84;5496280;26;20541;-77
2024/04/20 09:07:13;;;;;;;2.00;1.37;;;6.90;99.90;;;7.67;100.00;98357.22;5493793;26;20539;-76
2024/04/20 09:09:45;;;;;;;1.53;1.23;;;6.90;99.90;;;7.69;100.00;98358.69;5493741;26;20533;-76
2024/04/20 09:12:16;;;;;;;3.53;1.20;;;7.00;99.90;;;7.77;100.00;98368.31;5496711;26;20598;-76
2024/04/20 09:14:52;;;;;;;2.10;1.30;;;7.00;99.90;;;7.73;100.00;98373.03;5496083;25;21105;-76
2024/04/20 09:17:25;;;;;;;2.70;1.37;;;7.00;99.90;;;7.77;100.00;98368.31;5496569;26;20489;-76
2024/04/20 09:19:59;;;;;;;1.23;1.13;;;7.00;99.90;;;7.77;100.00;98360.50;5496404;26;20483;-76
2024/04/20 09:22:29;;;;;;;1.87;1.20;;;7.00;99.90;;;7.88;100.00;98373.19;5495646;26;21007;-76
2024/04/20 09:25:03;;;;;;;1.53;1.23;;;7.10;99.90;;;7.96;100.00;98373.19;5495601;26;20587;-76
2024/04/20 09:27:34;;;;;;;1.20;1.03;;;7.20;99.90;;;8.03;100.00;98368.97;5494859;26;20487;-76
2024/04/20 09:30:11;;;;;;;1.43;1.30;;;7.30;99.90;;;8.02;100.00;98375.13;5494110;26;20474;-76
2024/04/20 09:32:45;;;;;;;1.17;1.00;;;7.30;99.90;;;8.10;100.00;98369.94;5491650;26;21147;-76
2024/04/20 09:35:18;;;;;;;1.10;1.00;;;7.40;99.90;;;8.13;100.00;98380.03;5496942;26;20485;-76
2024/04/20 09:37:49;;;;;;;2.70;0.90;;;7.40;99.90;;;8.21;100.00;98381.81;5495731;26;20631;-76
2024/04/20 09:40:19;;;;;;;1.40;1.00;;;7.40;99.90;;;8.25;100.00;98388.34;5496782;25;20480;-76
2024/04/20 09:42:58;;;;;;;1.77;1.00;;;7.50;99.90;;;8.21;100.00;98390.44;5493977;25;20495;-76
2024/04/20 09:45:32;;;;;;;1.10;1.00;;;7.60;99.90;;;8.11;100.00;98389.81;5498159;26;20583;-76
2024/04/20 09:48:04;;;;;;;5.63;0.90;;;7.50;99.90;;;8.12;100.00;98394.03;5493141;26;20477;-76
2024/04/20 09:50:35;;;;;;;1.13;0.90;;;7.40;99.90;;;8.08;100.00;98405.75;5496245;26;21115;-75
2024/04/20 09:53:17;;;;;;;1.43;1.20;;;7.40;99.90;;;8.05;100.00;98409.47;5496999;26;20519;-75
2024/04/20 09:55:50;;;;;;;1.10;0.97;;;7.40;99.90;;;7.96;100.00;98410.47;5496747;25;20484;-76
2024/04/20 09:58:25;;;;;;;2.70;1.10;;;7.30;99.90;;;7.93;100.00;98415.19;5495503;26;20542;-76
2024/04/20 10:00:59;;;;;;;1.77;1.20;;;7.20;99.90;;;7.70;100.00;98407.19;5497201;26;20528;-76
2024/04/20 10:03:33;;;;;;;0.80;0.70;;;7.00;99.90;;;7.36;100.00;98403.81;5501247;25;20469;-76
2024/04/20 10:06:06;;;;;;;0.70;0.67;;;6.70;99.90;;;7.39;100.00;98399.09;5496970;25;20481;-76
2024/04/20 10:08:40;;;;;;;1.00;0.90;;;6.80;99.90;;;7.36;100.00;98391.63;5496672;25;20601;-75
2024/04/20 10:11:12;;;;;;;1.27;0.70;;;6.60;99.90;;;7.35;100.00;98395.22;5496676;26;20554;-76
2024/04/20 10:13:45;;;;;;;1.00;0.90;;;6.80;99.90;;;7.24;100.00;98392.91;5492531;26;20469;-76
2024/04/20 10:16:22;;;;;;;0.90;0.80;;;6.50;99.90;;;7.33;100.00;98391.94;5494438;26;20537;-76
2024/04/20 10:18:53;;;;;;;1.10;0.90;;;6.60;99.90;;;7.42;100.00;98387.59;5496988;26;21126;-76
2024/04/20 10:21:24;;;;;;;1.47;1.00;;;6.70;99.90;;;7.60;100.00;98388.28;5494818;25;20483;-76
2024/04/20 10:23:54;;;;;;;1.60;1.10;;;6.90;99.90;;;7.67;100.00;98378.06;5497602;26;20487;-76
2024/04/20 10:26:32;;;;;;;3.00;1.00;;;7.00;99.90;;;7.84;100.00;98380.53;5493610;26;20939;-76
2024/04/20 10:29:10;;;;;;;5.80;1.00;;;7.20;99.90;;;7.97;100.00;98385.25;5494766;25;20598;-76
2024/04/20 10:31:44;;;;;;;0.80;0.80;;;7.40;99.90;;;7.99;100.00;98384.09;5493667;26;20601;-76
2024/04/20 10:34:26;;;;;;;2.40;0.83;;;7.50;99.90;;;8.04;100.00;98381.00;5494407;26;20486;-76
2024/04/20 10:37:02;;;;;;;2.20;0.70;;;7.50;99.90;;;7.86;100.00;98378.56;5494641;25;20556;-75
2024/04/20 10:39:33;;;;;;;1.80;1.00;;;7.20;99.90;;;7.89;100.00;98387.81;5496725;26;21363;-76
2024/04/20 10:42:11;;;;;;;1.53;0.80;;;7.20;99.90;;;7.84;100.00;98390.13;5493462;26;20981;-76
2024/04/20 10:44:41;;;;;;;1.10;1.00;;;7.10;99.90;;;8.05;100.00;98393.84;5499841;25;20496;-76